Ostaskov, Russia
Current Conditions -  °F | °C
As of 2:30 AM on Sunday 23 Nov 2014 (Local Time) from UUBW Reporting Station
Clear Clear  
Wind Chill: 15°   Ceiling: Unl
Heat Index: 21°   Visibility: 6mi
Dew Point: 16°   Wind: 4mph
Humidity: 80%   Direction: 250°WSW
Pressure: 30.39"   Gusts: NA
Location:  57.16°N, 33.11°E
Report Text: UUBW 222330Z 25002MPS CAVOK M06/M09 Q1029 NOSIG
Loading
Personal Weather Stations






























Interactive Weather Map New forecast layout! Learn more

10-Day Weather Forecast

Advertisements
Track Severe Weather on mobile